Time;durP1;ratioP1;P1;durP2;ratioP2;P2;SDS_P1;SDS_P2;PMS_P1;PMS_P2;Temp;Humidity;BMP_temperature;BMP_pressure;BME280_temperature;BME280_humidity;BME280_pressure;Samples;Min_cycle;Max_cycle;Signal;HPM_P1;HPM_P2
2021/03/17 00:01:06;;;;;;;12.30;4.15;;;4.60;99.90;;;5.72;89.96;101305.16;4987091;28;20173;-78
2021/03/17 00:03:32;;;;;;;8.23;4.75;;;4.60;99.90;;;5.69;90.32;101300.22;5003132;28;20042;-78
2021/03/17 00:05:58;;;;;;;10.80;4.45;;;4.70;99.90;;;5.70;89.98;101296.34;4987469;28;20438;-80
2021/03/17 00:08:24;;;;;;;8.93;4.32;;;4.60;99.90;;;5.71;90.41;101297.16;5019597;28;20034;-78
2021/03/17 00:10:54;;;;;;;8.73;4.47;;;4.70;99.90;;;5.67;90.20;101296.13;5025125;28;20056;-79
2021/03/17 00:13:28;;;;;;;11.38;4.70;;;4.70;99.90;;;5.70;89.73;101301.88;5024535;28;20056;-81
2021/03/17 00:15:59;;;;;;;10.02;4.85;;;4.70;99.90;;;5.68;90.14;101297.78;5023970;28;20034;-78
2021/03/17 00:18:25;;;;;;;5.38;3.63;;;4.70;99.90;;;5.70;89.92;101306.59;5008524;28;20030;-79
2021/03/17 00:20:51;;;;;;;10.57;4.75;;;4.70;99.90;;;5.73;89.71;101305.97;5025054;28;20109;-79
2021/03/17 00:23:18;;;;;;;13.25;4.35;;;4.70;99.90;;;5.70;90.11;101306.59;5025686;28;20040;-79
2021/03/17 00:25:45;;;;;;;8.27;5.00;;;4.70;99.90;;;5.73;90.20;101319.84;5025524;28;20053;-80
2021/03/17 00:28:13;;;;;;;14.45;4.63;;;4.70;99.90;;;5.73;90.12;101317.88;5025942;28;20054;-79
2021/03/17 00:30:41;;;;;;;17.98;6.15;;;4.70;99.90;;;5.75;90.66;101318.38;5026013;28;20033;-81
2021/03/17 00:33:14;;;;;;;10.13;4.32;;;4.70;99.90;;;5.74;90.54;101325.09;5025735;28;20034;-77
2021/03/17 00:35:42;;;;;;;14.13;4.32;;;4.70;99.90;;;5.68;90.43;101320.75;5008798;28;20033;-79
2021/03/17 00:38:09;;;;;;;11.07;5.03;;;4.70;99.90;;;5.71;90.70;101330.41;5008570;28;20050;-79
2021/03/17 00:40:37;;;;;;;7.82;4.30;;;4.70;99.90;;;5.71;90.94;101330.41;5026911;28;20026;-79
2021/03/17 00:43:04;;;;;;;12.68;4.38;;;4.60;99.90;;;5.67;91.12;101324.66;5027138;28;20034;-78
2021/03/17 00:45:30;;;;;;;9.90;4.40;;;4.70;99.90;;;5.69;90.08;101319.63;5023882;28;20034;-78
2021/03/17 00:47:57;;;;;;;12.25;4.88;;;4.60;99.90;;;5.71;89.71;101331.25;5025229;28;20064;-80
2021/03/17 00:50:24;;;;;;;10.32;4.53;;;4.70;99.90;;;5.71;89.81;101324.88;5023815;28;20136;-78
2021/03/17 00:52:50;;;;;;;9.05;3.60;;;4.60;99.90;;;5.74;90.14;101330.63;5025007;28;20037;-78
2021/03/17 00:55:16;;;;;;;8.90;4.03;;;4.70;99.90;;;5.78;89.35;101330.81;5025371;28;20473;-77
2021/03/17 00:57:42;;;;;;;8.77;3.83;;;4.70;99.90;;;5.78;88.70;101325.25;5006691;28;20034;-79
2021/03/17 01:00:13;;;;;;;6.43;3.92;;;4.60;99.90;;;5.75;88.83;101317.56;5024470;28;20117;-80
2021/03/17 01:02:39;;;;;;;9.48;4.30;;;4.70;99.90;;;5.69;88.79;101325.16;5024133;28;20097;-78
2021/03/17 01:05:07;;;;;;;13.00;4.78;;;4.60;99.90;;;5.70;89.14;101312.13;5025095;28;20038;-78
2021/03/17 01:07:33;;;;;;;9.30;4.05;;;4.60;99.90;;;5.69;88.67;101325.16;5017274;28;20041;-79
2021/03/17 01:09:59;;;;;;;15.00;5.05;;;4.60;99.90;;;5.65;89.14;101315.81;5005759;28;20041;-79
2021/03/17 01:12:26;;;;;;;10.48;3.83;;;4.60;99.90;;;5.59;89.17;101319.84;5006367;28;20026;-79
2021/03/17 01:14:52;;;;;;;10.00;4.38;;;4.60;99.90;;;5.57;89.25;101319.34;5006852;28;20037;-79
2021/03/17 01:17:17;;;;;;;12.57;4.68;;;4.60;99.90;;;5.58;89.48;101331.25;5006704;28;20034;-80
2021/03/17 01:19:43;;;;;;;10.52;4.13;;;4.50;99.90;;;5.58;89.64;101332.06;4989612;28;20026;-81
2021/03/17 01:22:09;;;;;;;8.80;4.28;;;4.60;99.90;;;5.64;88.76;101325.28;5007078;28;20030;-79
2021/03/17 01:24:36;;;;;;;10.70;4.43;;;4.60;99.90;;;5.59;88.57;101328.16;5009360;28;20489;-80
2021/03/17 01:27:02;;;;;;;13.32;4.28;;;4.60;99.90;;;5.60;89.15;101331.75;5014952;28;20053;-79
2021/03/17 01:29:28;;;;;;;6.47;3.72;;;4.60;99.90;;;5.59;88.80;101322.59;5014916;28;20038;-80
2021/03/17 01:31:54;;;;;;;13.52;4.78;;;4.60;99.90;;;5.57;89.71;101330.41;5003360;28;20091;-80
2021/03/17 01:34:20;;;;;;;12.13;4.80;;;4.60;99.90;;;5.56;89.82;101331.53;5005396;28;20060;-80
2021/03/17 01:36:48;;;;;;;9.38;4.78;;;4.50;99.90;;;5.53;89.14;101329.38;5005123;28;20433;-79
2021/03/17 01:39:14;;;;;;;13.18;5.13;;;4.50;99.90;;;5.54;89.73;101330.22;5004437;28;20026;-79
2021/03/17 01:41:40;;;;;;;13.00;5.10;;;4.50;99.90;;;5.55;89.53;101327.16;4987139;28;20037;-78
2021/03/17 01:44:06;;;;;;;10.82;5.38;;;4.50;99.90;;;5.52;90.03;101332.47;4987383;28;20030;-81
2021/03/17 01:46:32;;;;;;;9.07;5.22;;;4.50;99.90;;;5.54;89.79;101338.53;4986859;28;20486;-79
2021/03/17 01:48:58;;;;;;;12.40;5.30;;;4.50;99.90;;;5.53;90.32;101347.97;5003426;28;20037;-79
2021/03/17 01:51:24;;;;;;;10.15;4.80;;;4.50;99.90;;;5.52;89.70;101330.50;5004656;28;20034;-80
2021/03/17 01:53:51;;;;;;;13.52;5.13;;;4.50;99.90;;;5.50;89.63;101341.09;5003801;28;20042;-79
2021/03/17 01:56:17;;;;;;;11.85;5.68;;;4.50;99.90;;;5.48;89.94;101343.34;4986877;28;20514;-79
2021/03/17 01:58:43;;;;;;;12.27;5.13;;;4.50;99.90;;;5.50;89.88;101335.53;5007766;28;20033;-80
2021/03/17 02:01:10;;;;;;;13.77;5.13;;;4.50;99.90;;;5.49;89.56;101344.97;5008241;28;20029;-78
2021/03/17 04:43:49;;;;;;;9.50;6.68;;;3.90;99.90;;;4.88;93.42;101342.53;5021340;28;20056;-80
2021/03/17 04:46:16;;;;;;;8.82;6.10;;;3.90;99.90;;;4.88;93.27;101341.72;4999250;28;20393;-81
2021/03/17 04:48:46;;;;;;;11.48;6.97;;;3.90;99.90;;;4.85;93.67;101345.09;5017457;28;20034;-81
2021/03/17 04:51:17;;;;;;;8.27;6.15;;;3.90;99.90;;;4.92;92.91;101349.09;5000424;28;20125;-80
2021/03/17 04:53:44;;;;;;;9.23;6.78;;;3.90;99.90;;;4.91;93.35;101347.47;4999470;28;20439;-82
2021/03/17 04:56:15;;;;;;;10.13;7.13;;;3.90;99.90;;;4.85;94.29;101345.09;5000182;28;20049;-82
2021/03/17 04:58:42;;;;;;;10.15;6.95;;;3.90;99.90;;;4.92;93.81;101346.34;5011686;28;20030;-81
2021/03/17 05:01:13;;;;;;;7.97;5.93;;;4.00;99.90;;;4.95;93.56;101355.97;5007432;28;20033;-81
2021/03/17 05:03:42;;;;;;;8.50;6.47;;;4.00;99.90;;;4.88;93.85;101359.13;5005344;28;20065;-83
2021/03/17 05:06:11;;;;;;;8.70;6.03;;;3.90;99.90;;;4.89;93.94;101362.72;4995600;28;20124;-83
2021/03/17 05:08:44;;;;;;;8.32;6.00;;;4.00;99.90;;;4.85;94.38;101361.72;5012901;28;20409;-82
2021/03/17 05:11:15;;;;;;;9.18;6.57;;;3.90;99.90;;;4.87;94.68;101363.03;5018179;28;20029;-83
2021/03/17 05:13:43;;;;;;;8.65;6.50;;;3.90;99.90;;;4.91;94.45;101363.25;5004078;28;20516;-80
2021/03/17 05:16:12;;;;;;;8.18;6.13;;;3.90;99.90;;;4.93;94.21;101358.22;4996122;28;20080;-81
2021/03/17 05:18:40;;;;;;;9.60;6.32;;;4.00;99.90;;;4.96;94.63;101365.94;5001267;28;20437;-81
2021/03/17 05:21:10;;;;;;;9.13;6.50;;;4.00;99.90;;;4.90;94.54;101359.66;4990992;28;20030;-82
2021/03/17 05:23:41;;;;;;;6.95;5.25;;;3.90;99.90;;;4.95;94.11;101358.75;4998134;28;20061;-82
2021/03/17 05:26:08;;;;;;;7.43;5.82;;;4.00;99.90;;;4.96;93.75;101358.44;5004846;28;20022;-80
2021/03/17 05:28:38;;;;;;;7.00;5.13;;;4.00;99.90;;;5.01;94.73;101363.09;5014261;28;20131;-82
2021/03/17 05:31:08;;;;;;;8.75;6.10;;;4.00;99.90;;;5.02;93.23;101356.41;5006927;28;20422;-82
2021/03/17 05:33:36;;;;;;;8.82;5.57;;;4.00;99.90;;;5.05;93.70;101361.34;5014462;28;20045;-83
2021/03/17 05:36:03;;;;;;;8.00;5.90;;;4.00;99.90;;;4.95;94.15;101365.09;5011684;28;20045;-84
2021/03/17 05:38:29;;;;;;;8.73;5.57;;;4.00;99.90;;;5.06;94.00;101374.06;5010178;28;20027;-83
2021/03/17 05:40:56;;;;;;;11.15;6.60;;;4.10;99.90;;;4.99;93.88;101374.44;4993916;28;20130;-82
2021/03/17 05:43:23;;;;;;;7.70;5.20;;;4.10;99.90;;;5.07;94.10;101370.19;5000905;28;20455;-82
2021/03/17 05:45:51;;;;;;;8.20;5.68;;;4.00;99.90;;;4.98;94.49;101389.41;5000895;28;20105;-81
2021/03/17 05:48:19;;;;;;;8.07;4.30;;;4.00;99.90;;;4.71;92.63;101387.38;5000474;28;20030;-81
2021/03/17 05:50:45;;;;;;;5.97;2.60;;;3.80;99.90;;;4.45;90.05;101391.66;5000724;28;20061;-80
2021/03/17 05:53:10;;;;;;;7.25;2.60;;;3.60;99.90;;;4.19;89.87;101390.38;5002051;28;20057;-80
2021/03/17 05:55:38;;;;;;;5.68;2.42;;;3.30;99.90;;;4.06;89.81;101391.09;5001552;28;20038;-81
2021/03/17 05:58:05;;;;;;;8.75;2.60;;;3.20;99.90;;;3.99;91.56;101393.41;5008649;28;20076;-81
2021/03/17 06:00:31;;;;;;;5.20;2.25;;;3.10;99.90;;;4.01;91.43;101399.47;5027649;28;20137;-81
2021/03/17 06:03:02;;;;;;;10.38;2.47;;;3.10;99.90;;;4.09;91.11;101410.69;5035575;28;20040;-80
2021/03/17 06:05:28;;;;;;;4.93;2.67;;;3.10;99.90;;;4.05;91.66;101394.97;5004416;28;20378;-81
2021/03/17 06:08:07;;;;;;;9.10;3.20;;;3.10;99.90;;;4.06;91.45;101403.00;5013009;28;20069;-81
2021/03/17 06:10:35;;;;;;;6.78;3.65;;;3.10;99.90;;;4.13;92.37;101405.41;5007660;28;20049;-81
2021/03/17 06:13:12;;;;;;;16.33;3.47;;;3.10;99.90;;;4.15;92.51;101415.03;5007764;28;20564;-80
2021/03/17 06:15:49;;;;;;;13.73;3.72;;;3.20;99.90;;;4.13;92.21;101417.28;5005296;28;20185;-82
2021/03/17 06:18:35;;;;;;;14.10;3.92;;;3.20;99.90;;;4.20;92.11;101422.44;5002211;28;20030;-81
2021/03/17 06:21:03;;;;;;;7.20;3.77;;;3.20;99.90;;;4.26;90.93;101421.25;5003424;28;20026;-80
2021/03/17 06:23:29;;;;;;;10.57;3.97;;;3.20;99.90;;;4.25;91.80;101420.44;5004135;28;20273;-82
2021/03/17 06:25:58;;;;;;;9.52;4.43;;;3.20;99.90;;;4.33;91.90;101429.19;5003555;28;20090;-82
2021/03/17 06:28:26;;;;;;;12.68;4.10;;;3.30;99.90;;;4.34;91.81;101426.09;4984944;28;20026;-82
2021/03/17 06:30:57;;;;;;;15.38;4.25;;;3.30;99.90;;;4.31;91.42;101423.94;5003779;28;20053;-86
2021/03/17 06:33:24;;;;;;;9.07;4.18;;;3.30;99.90;;;4.33;90.93;101430.00;4985753;28;20049;-83
2021/03/17 06:36:18;;;;;;;12.32;4.50;;;3.30;99.90;;;4.29;90.52;101426.19;5003316;28;20041;-84
2021/03/17 06:38:48;;;;;;;11.07;2.30;;;3.30;99.90;;;4.31;90.30;101436.94;4985174;28;20030;-85
2021/03/17 06:41:18;;;;;;;17.50;3.50;;;3.30;99.90;;;4.27;89.33;101430.38;5001468;28;20026;-85
2021/03/17 06:43:49;;;;;;;12.68;2.97;;;3.30;99.90;;;4.31;89.02;101418.41;4984639;28;20030;-84
2021/03/17 06:46:19;;;;;;;13.88;3.15;;;3.40;99.90;;;4.35;88.75;101419.47;5002550;28;20054;-84
2021/03/17 06:48:45;;;;;;;10.77;2.70;;;3.40;99.90;;;4.30;88.46;101422.31;5002406;28;20030;-85
2021/03/17 06:51:23;;;;;;;7.00;2.53;;;3.40;99.90;;;4.33;88.18;101413.41;5001598;28;20045;-85
2021/03/17 06:54:04;;;;;;;48.75;19.73;;;3.40;99.90;;;4.44;88.33;101414.91;4985906;28;20022;-84
2021/03/17 06:56:35;;;;;;;22.52;8.95;;;3.40;99.90;;;4.45;88.29;101418.50;4987679;28;20034;-83
2021/03/17 06:59:09;;;;;;;8.23;2.97;;;3.50;99.90;;;4.47;86.98;101422.59;5004639;28;20046;-84
2021/03/17 07:01:40;;;;;;;13.15;2.78;;;3.40;99.90;;;4.35;86.83;101425.00;5003470;28;20037;-84
2021/03/17 07:04:24;;;;;;;7.25;1.60;;;3.40;99.90;;;4.28;87.43;101413.47;5002147;28;20033;-86
2021/03/17 07:07:02;;;;;;;29.63;12.23;;;3.40;99.90;;;4.28;86.78;101412.66;4989669;28;20058;-84
2021/03/17 07:09:31;;;;;;;17.55;6.22;;;3.30;99.90;;;4.19;87.49;101416.09;5006488;28;20036;-84
2021/03/17 07:12:11;;;;;;;9.05;2.30;;;3.20;99.90;;;4.10;88.46;101414.28;5023191;28;20030;-85
2021/03/17 07:14:44;;;;;;;6.57;2.10;;;3.20;99.90;;;4.28;88.74;101420.94;5006342;28;20045;-83
2021/03/17 07:17:31;;;;;;;9.27;2.60;;;3.30;99.90;;;4.86;89.00;101418.69;5006017;28;20427;-83
2021/03/17 07:19:58;;;;;;;9.48;2.55;;;3.70;99.90;;;5.42;84.94;101415.78;5010883;28;20033;-83
2021/03/17 07:22:26;;;;;;;11.35;3.22;;;4.10;99.90;;;5.81;83.55;101421.69;5023215;28;20026;-83
2021/03/17 07:25:02;;;;;;;6.10;2.42;;;4.50;99.90;;;6.25;82.15;101426.63;5024221;28;20354;-84
2021/03/17 07:27:30;;;;;;;;;;;4.80;99.90;;;6.49;79.67;101418.03;5008026;28;20048;-83
2021/03/17 07:30:03;;;;;;;6.00;2.13;;;5.10;99.90;;;6.75;78.81;101428.25;5009418;28;19979;-83
2021/03/17 07:33:03;;;;;;;6.97;2.83;;;5.40;99.90;;;6.77;75.70;101417.66;5023804;28;20033;-83
2021/03/17 07:35:37;;;;;;;12.38;4.45;;;5.50;99.90;;;6.72;76.87;101422.50;5025130;28;20029;-83
2021/03/17 07:38:15;;;;;;;11.00;4.88;;;5.50;99.90;;;6.46;76.52;101425.03;5025740;28;20060;-82
2021/03/17 07:40:46;;;;;;;11.88;4.70;;;5.30;99.90;;;6.06;77.53;101414.84;5009029;28;20128;-83
2021/03/17 07:43:16;;;;;;;5.90;2.58;;;5.10;99.90;;;6.02;78.80;101425.72;5008109;28;20025;-83
2021/03/17 07:45:42;;;;;;;3.80;1.88;;;5.00;99.90;;;5.83;79.59;101434.13;5009301;28;20105;-83
2021/03/17 07:48:12;;;;;;;52.38;22.92;;;4.80;99.90;;;5.85;80.82;101433.78;5026984;28;20085;-85
2021/03/17 07:50:41;;;;;;;8.20;2.78;;;4.80;99.90;;;5.79;80.15;101433.06;5026501;28;20029;-82
2021/03/17 07:53:20;;;;;;;9.80;3.00;;;4.70;99.90;;;5.74;80.41;101432.38;5010795;28;20504;-83
2021/03/17 07:55:56;;;;;;;5.43;1.75;;;4.70;99.90;;;5.70;80.55;101434.91;5026064;28;20029;-85
2021/03/17 07:58:24;;;;;;;7.13;1.60;;;4.60;99.90;;;5.82;81.13;101445.50;5027592;28;20057;-84
2021/03/17 08:00:50;;;;;;;12.55;4.55;;;4.70;99.90;;;5.86;81.47;101448.50;5011289;28;20026;-83
2021/03/17 08:03:16;;;;;;;7.25;2.28;;;4.80;99.90;;;5.85;80.42;101453.19;5011016;28;20034;-85
2021/03/17 08:05:43;;;;;;;16.92;4.90;;;4.80;99.90;;;5.70;80.73;101445.19;5029726;28;20034;-82
2021/03/17 08:08:10;;;;;;;7.63;3.50;;;4.70;99.90;;;5.57;83.41;101443.22;5036727;28;20026;-84
2021/03/17 08:10:47;;;;;;;10.13;2.92;;;4.70;99.90;;;5.52;82.79;101448.84;5031386;28;20026;-85
2021/03/17 08:13:14;;;;;;;14.63;3.67;;;4.60;99.90;;;5.40;83.12;101457.63;5009928;28;20054;-86
2021/03/17 08:15:45;;;;;;;19.63;7.35;;;4.50;99.90;;;5.44;83.41;101441.22;5027433;28;20053;-87
2021/03/17 08:18:30;;;;;;;6.85;2.80;;;4.50;99.90;;;5.65;83.67;101453.59;5029308;28;20373;-83
2021/03/17 08:20:56;;;;;;;6.38;2.30;;;4.70;99.90;;;5.79;82.07;101449.72;5026120;28;20029;-86
2021/03/17 08:23:42;;;;;;;11.85;3.00;;;4.70;99.90;;;5.73;79.94;101456.47;5027354;28;20033;-85
2021/03/17 08:26:33;;;;;;;9.37;2.47;;;4.80;99.90;;;5.67;81.07;101457.72;5020524;28;20045;-84
2021/03/17 08:29:00;;;;;;;9.77;3.45;;;4.70;99.90;;;5.56;80.86;101455.41;5020965;28;20293;-83
2021/03/17 08:31:38;;;;;;;8.52;2.63;;;4.70;99.90;;;5.66;80.63;101458.00;5032726;28;20060;-82
2021/03/17 08:34:35;;;;;;;12.55;4.65;;;4.70;99.90;;;5.65;80.38;101454.41;5032398;28;20082;-84
2021/03/17 08:37:06;;;;;;;7.03;2.70;;;4.80;99.90;;;5.65;80.15;101459.94;5000751;28;20121;-84
2021/03/17 08:39:37;;;;;;;7.82;2.83;;;4.80;99.90;;;5.58;79.86;101451.22;5013610;28;20074;-85
2021/03/17 08:42:27;;;;;;;7.72;3.15;;;4.70;99.90;;;5.64;80.04;101449.19;5031396;28;20033;-86
2021/03/17 08:45:14;;;;;;;6.03;2.25;;;4.70;99.90;;;5.67;79.67;101449.41;5012666;28;20044;-86
2021/03/17 08:47:48;;;;;;;5.28;2.08;;;4.80;99.90;;;5.86;77.85;101451.28;5029644;28;20022;-86
2021/03/17 08:50:30;;;;;;;7.00;2.75;;;4.90;99.90;;;5.90;77.50;101447.59;5014412;28;20113;-86
2021/03/17 08:52:56;;;;;;;11.65;3.38;;;5.00;99.90;;;6.14;78.06;101461.25;5012408;28;20045;-83
2021/03/17 08:55:35;;;;;;;6.57;3.20;;;5.10;99.90;;;6.38;78.43;101450.75;5025053;28;20040;-85
2021/03/17 08:58:06;;;;;;;14.82;3.63;;;5.30;99.90;;;6.56;78.26;101463.66;5005962;28;20041;-84
2021/03/17 09:01:00;;;;;;;16.17;5.35;;;5.50;99.90;;;6.52;78.08;101453.50;5006085;28;20120;-84
2021/03/17 09:03:37;;;;;;;11.27;3.10;;;5.50;99.90;;;6.62;76.73;101451.31;5015224;28;20394;-85
2021/03/17 09:06:14;;;;;;;8.95;3.60;;;5.60;99.90;;;6.68;76.26;101458.38;5032748;28;20025;-85
2021/03/17 09:09:16;;;;;;;10.23;3.70;;;5.70;99.90;;;7.00;76.69;101456.56;5017698;28;20026;-86
2021/03/17 09:11:42;;;;;;;5.47;3.08;;;5.80;99.90;;;6.74;75.64;101464.66;5004996;28;20106;-83
2021/03/17 09:14:22;;;;;;;18.27;7.00;;;5.80;99.90;;;6.64;76.74;101471.25;5012270;28;20031;-85
2021/03/17 09:17:10;;;;;;;38.58;16.63;;;5.70;99.90;;;6.74;77.24;101464.66;5012483;28;20082;-85
2021/03/17 09:20:06;;;;;;;13.90;3.95;;;5.70;99.90;;;6.77;76.93;101464.84;4993039;28;20077;-84
2021/03/17 09:22:49;;;;;;;9.50;3.05;;;5.70;99.90;;;6.58;76.14;101464.16;5011332;28;20026;-84
2021/03/17 09:25:32;;;;;;;14.10;4.57;;;5.60;99.90;;;6.29;77.52;101469.25;4998252;28;20041;-84
2021/03/17 09:28:08;;;;;;;7.43;3.35;;;5.40;99.90;;;6.17;76.96;101466.16;5003226;28;20022;-86
2021/03/17 09:30:59;;;;;;;;;;;5.20;99.90;;;5.97;77.17;101466.59;5012351;28;20030;-86
2021/03/17 09:33:35;;;;;;;11.07;2.25;;;5.10;99.90;;;5.86;76.56;101465.13;5009975;28;19964;-85
2021/03/17 09:36:19;;;;;;;10.45;2.97;;;5.00;99.90;;;5.75;77.80;101459.75;5021006;28;20492;-85
2021/03/17 09:38:50;;;;;;;8.00;3.00;;;4.90;99.90;;;5.70;78.39;101459.88;5023875;28;20022;-87
2021/03/17 09:41:29;;;;;;;8.50;3.13;;;4.90;99.90;;;5.73;78.65;101470.34;5022165;28;20033;-86
2021/03/17 09:44:03;;;;;;;25.58;7.75;;;4.80;99.90;;;5.77;77.24;101462.25;5005354;28;20025;-86
2021/03/17 09:46:42;;;;;;;14.38;4.00;;;4.80;99.90;;;5.71;77.46;101458.75;5022836;28;20079;-85
2021/03/17 09:49:20;;;;;;;8.38;3.20;;;4.80;99.90;;;5.61;76.69;101461.72;5023579;28;20034;-84
2021/03/17 09:52:01;;;;;;;6.65;2.78;;;4.70;99.90;;;5.67;77.90;101463.25;5006901;28;20110;-85
2021/03/17 09:54:33;;;;;;;8.55;2.80;;;4.70;99.90;;;5.62;77.87;101459.75;5025184;28;20050;-82
2021/03/17 09:57:06;;;;;;;7.80;2.70;;;4.70;99.90;;;5.67;78.43;101460.47;5029147;28;20081;-84
2021/03/17 09:59:45;;;;;;;7.57;2.88;;;4.70;99.90;;;5.72;80.14;101462.31;5022592;28;20044;-84
2021/03/17 10:02:25;;;;;;;11.38;3.40;;;4.80;99.90;;;5.49;79.29;101464.13;5021481;28;20060;-85
2021/03/17 10:04:56;;;;;;;6.40;3.03;;;4.60;99.90;;;5.29;81.15;101467.28;5006006;28;20034;-85
2021/03/17 10:07:30;;;;;;;15.38;5.72;;;4.40;99.90;;;5.44;81.63;101460.63;5017313;28;20057;-85
2021/03/17 10:09:59;;;;;;;9.13;4.00;;;4.50;99.90;;;5.68;82.51;101455.75;5006394;28;20449;-86
2021/03/17 10:12:31;;;;;;;16.90;5.03;;;4.60;99.90;;;6.38;82.50;101467.41;5005906;28;20057;-85
2021/03/17 10:15:07;;;;;;;20.52;5.93;;;5.20;99.90;;;7.49;77.73;101459.16;5002390;28;20030;-84
2021/03/17 10:17:34;;;;;;;12.55;4.68;;;6.00;99.90;;;7.90;76.42;101456.94;5006287;28;20030;-83
2021/03/17 10:20:27;;;;;;;20.88;7.05;;;6.50;99.90;;;7.59;74.41;101458.91;5010615;28;20034;-84
2021/03/17 10:23:01;;;;;;;14.60;5.20;;;6.50;99.90;;;7.72;76.05;101457.16;5000959;28;20026;-85
2021/03/17 10:25:29;;;;;;;13.23;4.25;;;6.60;99.90;;;7.67;72.54;101458.16;5015210;28;20026;-87
2021/03/17 10:28:08;;;;;;;11.25;3.15;;;6.60;99.90;;;7.55;72.07;101460.69;5014135;28;20037;-83
2021/03/17 10:30:38;;;;;;;9.13;3.00;;;6.50;99.90;;;7.14;69.95;101452.56;5010473;28;20030;-85
2021/03/17 10:33:14;;;;;;;8.00;3.08;;;6.20;99.90;;;6.99;70.25;101458.50;5016460;28;20101;-84
2021/03/17 10:35:44;;;;;;;;;;;6.10;99.90;;;7.00;70.53;101451.78;5014185;28;20024;-84
2021/03/17 10:38:11;;;;;;;7.32;1.90;;;6.10;99.90;;;6.97;68.82;101459.97;5029432;28;19909;-86
2021/03/17 10:40:40;;;;;;;7.10;2.05;;;6.00;99.90;;;6.92;64.90;101458.13;5030590;28;20033;-85
2021/03/17 10:43:14;;;;;;;6.65;2.92;;;6.00;99.90;;;6.94;62.29;101463.34;5017812;28;20030;-86
2021/03/17 10:45:51;;;;;;;6.65;1.42;;;6.00;99.90;;;7.06;64.13;101461.66;5011470;23;20035;-85
2021/03/17 10:48:24;;;;;;;27.52;8.40;;;6.10;99.90;;;7.10;62.53;101467.38;5016804;28;20515;-82
2021/03/17 10:50:55;;;;;;;10.10;2.30;;;6.00;99.90;;;6.89;61.48;101462.34;5002296;28;20098;-84
2021/03/17 10:53:34;;;;;;;7.55;2.63;;;6.00;99.90;;;6.99;61.37;101458.50;5004832;28;20037;-83
2021/03/17 10:56:01;;;;;;;4.60;1.00;;;6.00;99.90;;;7.11;62.04;101467.09;5009677;28;20018;-82
2021/03/17 10:58:31;;;;;;;4.80;1.20;;;6.00;99.90;;;6.99;61.94;101454.91;5008006;28;20027;-82
2021/03/17 11:01:02;;;;;;;4.22;1.42;;;6.00;99.90;;;6.89;62.01;101467.91;5004631;28;20022;-83
2021/03/17 11:03:37;;;;;;;6.85;1.30;;;5.90;99.90;;;6.77;62.46;101475.97;5003717;28;20031;-82
2021/03/17 11:06:22;;;;;;;1.98;1.00;;;5.80;99.90;;;6.62;59.84;101473.50;5009093;28;20041;-82
2021/03/17 11:09:07;;;;;;;4.97;1.30;;;5.60;99.90;;;6.53;60.67;101466.22;5007429;28;20034;-82
2021/03/17 11:11:52;;;;;;;10.88;1.20;;;5.60;99.90;;;6.54;60.43;101470.66;5007385;28;20031;-83
2021/03/17 11:14:38;;;;;;;4.45;1.00;;;5.50;99.90;;;6.59;62.10;101473.31;5008603;28;20046;-82
2021/03/17 11:17:08;;;;;;;5.07;1.40;;;5.50;99.90;;;6.48;60.18;101466.34;5006403;28;20104;-82
2021/03/17 11:19:36;;;;;;;6.82;1.55;;;5.50;99.90;;;6.50;61.89;101475.19;5007280;28;20049;-81
2021/03/17 11:22:02;;;;;;;5.32;1.35;;;5.50;99.90;;;6.55;61.85;101464.00;5006818;28;20026;-83
2021/03/17 11:24:28;;;;;;;5.03;1.48;;;5.60;99.90;;;6.55;63.00;101464.00;5007382;28;20053;-83
2021/03/17 11:26:54;;;;;;;7.28;2.05;;;5.50;99.90;;;6.47;64.02;101473.84;5004490;28;20035;-82
2021/03/17 11:29:30;;;;;;;5.05;1.48;;;5.50;99.90;;;6.68;64.87;101474.22;5002503;28;20041;-81
2021/03/17 11:32:08;;;;;;;5.05;1.63;;;5.60;99.90;;;6.99;64.45;101475.16;5026315;28;20298;-82
2021/03/17 11:34:35;;;;;;;4.97;1.70;;;5.90;99.90;;;7.37;65.70;101468.09;5008269;28;20045;-83
2021/03/17 11:37:01;;;;;;;8.88;2.75;;;6.20;99.90;;;7.55;62.30;101469.00;5006231;28;20034;-82
2021/03/17 11:39:27;;;;;;;6.25;1.70;;;6.40;99.90;;;7.75;61.47;101462.91;5009026;28;20485;-82
2021/03/17 11:41:53;;;;;;;6.03;1.75;;;6.60;99.90;;;7.61;62.51;101466.94;5006552;28;20037;-82
2021/03/17 11:44:22;;;;;;;9.38;2.22;;;6.60;99.90;;;7.84;62.33;101454.59;5007286;28;20034;-82
2021/03/17 11:46:49;;;;;;;5.35;2.00;;;6.70;99.90;;;7.70;61.57;101462.25;5021636;28;20034;-83
2021/03/17 11:49:17;;;;;;;10.65;1.58;;;6.70;99.90;;;7.69;61.56;101464.19;5022991;28;20030;-82
2021/03/17 11:51:45;;;;;;;7.13;1.90;;;6.70;99.90;;;7.71;59.08;101455.53;5005665;28;20042;-83
2021/03/17 11:54:11;;;;;;;5.82;1.52;;;6.70;99.90;;;7.42;58.43;101461.56;5006918;28;20030;-83
2021/03/17 11:56:37;;;;;;;8.38;1.80;;;6.50;99.90;;;7.11;59.20;101458.75;5005775;28;20034;-83
2021/03/17 11:59:03;;;;;;;5.20;1.25;;;6.20;99.90;;;7.16;60.05;101464.16;5007715;28;20037;-82
2021/03/17 12:01:29;;;;;;;8.23;1.83;;;6.20;99.90;;;7.13;58.78;101463.97;5020868;28;20052;-83
2021/03/17 12:03:55;;;;;;;13.27;2.05;;;6.20;99.90;;;6.92;59.51;101465.63;4999065;28;20048;-85
2021/03/17 12:06:21;;;;;;;11.68;2.22;;;6.10;99.90;;;6.92;60.87;101451.72;5015630;28;20058;-83
2021/03/17 12:08:48;;;;;;;6.03;1.50;;;5.90;99.90;;;6.99;60.11;101452.13;4981238;28;20058;-84
2021/03/17 12:11:16;;;;;;;4.80;1.23;;;6.00;99.90;;;7.14;60.74;101449.78;4977916;28;20089;-83
2021/03/17 12:13:42;;;;;;;8.70;1.70;;;6.00;99.90;;;7.09;61.52;101452.72;4978172;28;20039;-84
2021/03/17 12:16:08;;;;;;;8.02;1.95;;;6.10;99.90;;;7.02;61.27;101455.09;4979100;28;20042;-85
2021/03/17 12:18:35;;;;;;;4.93;1.40;;;6.10;99.90;;;7.16;60.49;101458.63;4980678;28;20541;-85
2021/03/17 12:21:01;;;;;;;3.50;1.35;;;6.10;99.90;;;7.22;61.54;101459.34;4978895;28;20062;-83
2021/03/17 12:23:28;;;;;;;5.95;2.35;;;6.20;99.90;;;7.22;63.31;101462.09;4980713;28;20034;-82
2021/03/17 12:25:54;;;;;;;10.88;2.13;;;6.20;99.90;;;7.36;60.85;101466.44;4980132;28;20042;-83
2021/03/17 12:28:20;;;;;;;4.72;1.50;;;6.30;99.90;;;7.38;61.41;101471.72;4995263;28;20488;-84
2021/03/17 12:30:46;;;;;;;6.88;1.80;;;6.40;99.90;;;7.50;61.10;101474.72;4979438;28;20034;-85
2021/03/17 12:33:12;;;;;;;7.28;2.25;;;6.40;99.90;;;7.73;60.29;101470.78;4979575;28;20302;-84
2021/03/17 12:35:38;;;;;;;7.68;1.90;;;6.60;99.90;;;7.84;60.76;101465.72;4996666;28;20054;-84
2021/03/17 12:38:05;;;;;;;8.27;2.35;;;6.70;99.90;;;7.74;60.58;101461.28;4981182;28;20037;-83
2021/03/17 12:40:33;;;;;;;8.60;2.00;;;6.70;99.90;;;7.78;59.18;101462.28;4981461;28;20027;-83
2021/03/17 12:42:59;;;;;;;6.20;1.48;;;6.80;99.90;;;8.03;60.40;101460.75;4982049;28;20026;-85
2021/03/17 12:45:28;;;;;;;7.82;2.00;;;6.90;99.90;;;8.26;59.32;101459.53;4997216;28;20097;-83
2021/03/17 12:47:54;;;;;;;9.35;2.17;;;7.10;99.90;;;8.37;58.64;101460.06;4982077;28;20038;-84
2021/03/17 12:50:24;;;;;;;10.43;2.53;;;7.20;99.90;;;8.26;60.19;101465.09;4980675;28;20039;-84
2021/03/17 12:52:50;;;;;;;6.93;2.40;;;7.30;99.90;;;8.36;59.78;101461.22;4982617;28;20030;-84
2021/03/17 12:55:17;;;;;;;6.07;1.83;;;7.30;99.90;;;8.44;58.61;101466.78;4984152;28;20023;-84
2021/03/17 12:57:43;;;;;;;6.25;2.33;;;7.40;99.90;;;8.54;58.78;101462.88;4981806;28;20079;-86
2021/03/17 13:00:23;;;;;;;8.27;2.17;;;7.40;99.90;;;8.43;59.09;101467.97;4981526;28;20369;-85
2021/03/17 13:02:49;;;;;;;6.68;1.90;;;7.30;99.90;;;8.39;58.65;101460.56;4981361;28;20051;-84
2021/03/17 13:05:17;;;;;;;9.63;2.10;;;7.30;99.90;;;8.34;58.91;101464.34;4981184;28;20034;-85
2021/03/17 13:07:44;;;;;;;13.00;2.30;;;7.20;99.90;;;8.09;58.31;101461.44;4980066;28;20135;-83
2021/03/17 13:10:15;;;;;;;4.82;2.13;;;7.10;99.90;;;8.22;59.14;101463.28;4980350;28;20027;-82
2021/03/17 13:12:45;;;;;;;11.57;2.10;;;7.20;99.90;;;8.83;58.22;101465.06;4996817;28;20322;-85
2021/03/17 13:15:14;;;;;;;11.18;2.15;;;7.50;99.90;;;9.36;55.70;101456.34;4980649;28;20033;-84
2021/03/17 13:17:40;;;;;;;7.53;1.75;;;7.90;99.90;;;9.37;56.00;101458.81;4982140;28;20022;-84
2021/03/17 13:20:12;;;;;;;6.40;1.80;;;8.10;99.90;;;9.31;54.93;101448.97;4981999;28;20023;-84